Latest Weather Observations for Coolangatta

IDN60801

Issued at 2:52 pm EDT Saturday 29 February 2020 (issued every 10 minutes, with the page automatically refreshed every 10 minutes)

About weather observations | Map of weather stations | Latest weather observations for NSW | Other Formats
Station Details ID: 040717 Name: COOLANGATTA Lat: -28.17 Lon: 153.51 Height: 4.0 m
Data from the previous 72 hours. | See also: Recent months at Coolangatta

Observations at Coolangatta are collected in the Queensland time zone, which does not include daylight savings during the summer period. Therefore 'Rain since 9am' totals and other values are based on the Queensland time zone.

Date/Time
EDT
Temp
°C
App
Temp
°C
Dew
Point
°C
Rel
Hum
%
Delta-T
°C
Wind Press
QNH
hPa
Press
MSL
hPa
Rain since
9am
mm
Dir  Spd
km/h
Gust
km/h
Spd
kts
Gust
kts
29/02:30pm 27.3 26.4 19.9 64 4.8 SE 24 33 13 18 1013.0 1012.9 2.4
29/02:00pm 26.8 26.8 20.9 70 3.9 SE 22 28 12 15 1013.4 1013.3 2.2
29/01:30pm 25.8 28.2 22.3 81 2.3 S 13 19 7 10 1013.9 1013.8 2.2
29/01:00pm 23.5 25.0 21.2 87 1.5 S 15 24 8 13 1014.4 1014.3 2.2
29/12:41pm 23.5 24.2 21.2 87 1.5 SSE 19 28 10 15 1014.5 1014.4 2.0
29/12:30pm 23.7 25.5 21.2 86 1.6 S 13 28 7 15 1014.5 1014.4 1.8
29/12:21pm 24.0 24.3 19.7 77 2.8 SSW 17 30 9 16 1014.4 1014.3 1.2
29/12:00pm 26.5 26.6 20.3 68 4.1 S 20 32 11 17 1014.4 1014.3 0.0
29/11:30am 26.5 26.5 20.1 68 4.2 S 20 28 11 15 1014.6 1014.5 0.0
29/11:00am 26.5 26.6 20.3 68 4.1 S 20 33 11 18 1014.7 1014.6 0.0
29/10:30am 25.5 25.5 20.1 72 3.5 SSW 20 30 11 16 1014.6 1014.5 0.0
29/10:00am 24.9 24.7 19.7 73 3.4 SSW 20 28 11 15 1014.6 1014.5 1.0
29/09:30am 24.4 24.3 19.9 76 2.9 SSW 20 30 11 16 1014.4 1014.3 1.0
29/09:00am 23.8 24.8 20.3 81 2.3 SSW 15 24 8 13 1014.4 1014.3 1.0
29/08:30am 22.7 23.3 20.2 86 1.6 SW 17 28 9 15 1014.3 1014.2 1.0
29/08:00am 22.1 23.1 20.2 89 1.2 SSW 15 20 8 11 1014.2 1014.1 0.8
29/07:30am 23.1 23.5 19.9 82 2.1 SSW 17 26 9 14 1013.5 1013.4 0.4
29/07:00am 23.2 24.5 20.2 83 1.9 SSW 13 20 7 11 1013.1 1013.0 0.4
29/06:30am 23.0 25.1 20.1 84 1.9 SSW 9 15 5 8 1012.7 1012.6 0.4
29/06:09am 23.4 25.1 20.2 82 2.1 SSW 11 17 6 9 1012.5 1012.4 0.4
29/06:00am 23.5 24.8 20.2 82 2.1 S 13 17 7 9 1012.4 1012.3 0.4
29/05:49am 23.8 25.3 20.5 82 2.1 SSW 13 22 7 12 1012.3 1012.2 0.4
29/05:30am 23.3 24.6 20.2 83 2.0 SSW 13 17 7 9 1012.2 1012.1 0.4
29/05:00am 23.4 24.9 20.5 84 1.9 SSW 13 17 7 9 1012.2 1012.1 0.4
29/04:30am 23.6 25.2 20.7 84 1.9 S 13 19 7 10 1012.0 1011.9 0.4
29/04:00am 23.6 25.2 20.7 84 1.9 S 13 17 7 9 1011.9 1011.8 0.4
29/03:30am 23.8 25.5 20.9 84 1.9 S 13 17 7 9 1011.6 1011.5 0.4
29/03:00am 23.4 25.1 20.9 86 1.6 S 13 19 7 10 1011.6 1011.5 0.4
29/02:30am 23.9 25.7 21.2 85 1.8 S 13 20 7 11 1011.8 1011.7 0.4
29/02:00am 23.9 25.8 21.4 86 1.6 SSW 13 15 7 8 1012.0 1011.9 0.4
29/01:30am 24.2 26.1 21.3 84 1.9 SSW 13 20 7 11 1012.1 1012.0 0.4
29/01:00am 24.4 26.5 21.7 85 1.8 SSW 13 19 7 10 1012.2 1012.1 0.4
29/12:30am 24.1 26.5 21.6 86 1.7 S 11 17 6 9 1012.0 1011.9 0.4
29/12:00am 24.0 26.4 21.5 86 1.7 S 11 17 6 9 1011.7 1011.6 0.4
 
Date/Time
EDT
Temp
°C
App
Temp
°C
Dew
Point
°C
Rel
Hum
%
Delta-T
°C
Wind Press
QNH
hPa
Press
MSL
hPa
Rain since
9am
mm
Dir  Spd
km/h
Gust
km/h
Spd
kts
Gust
kts
28/11:30pm 24.0 26.0 21.5 86 1.7 SSE 13 19 7 10 1011.6 1011.5 0.4
28/11:00pm 24.8 26.9 21.7 83 2.1 SSW 13 17 7 9 1011.7 1011.6 0.0
28/10:30pm 24.4 26.8 21.5 84 1.9 SSW 11 17 6 9 1011.7 1011.6 0.0
28/10:00pm 24.5 27.2 21.4 83 2.0 S 9 11 5 6 1011.7 1011.6 0.0
28/09:30pm 25.1 27.3 21.8 82 2.2 S 13 19 7 10 1011.5 1011.4 0.0
28/09:00pm 25.5 28.0 21.8 80 2.5 SSE 11 15 6 8 1010.8 1010.7 0.0
28/08:30pm 26.3 27.7 21.9 77 2.9 SE 17 22 9 12 1010.4 1010.3 0.0
28/08:00pm 25.8 27.9 21.7 78 2.7 SSE 13 20 7 11 1010.1 1010.0 0.0
28/07:30pm 26.3 27.2 21.9 77 2.9 SE 20 26 11 14 1009.6 1009.5 0.0
28/07:00pm 26.7 27.7 22.1 76 3.1 ESE 20 26 11 14 1009.2 1009.1 0.0
28/06:30pm 27.2 28.3 22.4 75 3.2 SE 20 28 11 15 1008.9 1008.8 0.0
28/06:00pm 27.2 28.0 22.4 75 3.2 ESE 22 28 12 15 1008.2 1008.1 0.0
28/05:30pm 27.5 28.4 22.7 75 3.3 SE 22 30 12 16 1007.5 1007.4 0.0
28/05:00pm 28.0 28.3 21.5 67 4.3 SE 22 28 12 15 1007.5 1007.4 0.0
28/04:30pm 28.6 28.2 20.1 60 5.6 SE 22 30 12 16 1007.4 1007.3 0.0
28/04:00pm 28.2 28.6 21.0 65 4.8 SE 20 28 11 15 1007.4 1007.3 0.0
28/03:30pm 27.6 28.1 21.2 68 4.3 ESE 20 28 11 15 1007.2 1007.1 0.0
28/03:00pm 27.8 28.1 20.4 64 4.9 ESE 19 26 10 14 1007.2 1007.1 0.0
28/02:30pm 28.1 28.4 20.4 63 5.1 ESE 19 24 10 13 1007.5 1007.4 0.0
28/02:00pm 28.9 29.6 20.4 60 5.6 ESE 17 24 9 13 1007.6 1007.5 0.0
28/01:30pm 28.9 29.0 19.2 55 6.3 E 17 24 9 13 1007.8 1007.7 0.0
28/01:00pm 28.9 29.6 20.4 60 5.6 E 17 28 9 15 1008.0 1007.9 0.0
28/12:30pm 28.2 28.5 20.5 63 5.1 ENE 19 22 10 12 1008.3 1008.2 0.0
28/12:00pm 28.1 29.1 21.1 65 4.7 NE 17 20 9 11 1008.4 1008.3 0.0
28/11:30am 27.8 29.3 20.6 65 4.7 NNE 13 19 7 10 1008.6 1008.5 0.0
28/11:00am 27.8 30.1 21.3 67 4.3 NNE 11 15 6 8 1008.5 1008.4 0.0
28/10:30am 27.2 29.1 20.5 67 4.4 NNE 11 15 6 8 1008.4 1008.3 0.0
28/10:00am 26.8 29.4 20.4 68 4.2 N 7 13 4 7 1008.4 1008.3 1.0
28/09:30am 26.5 30.5 21.3 73 3.4 E 2 6 1 3 1008.4 1008.3 1.0
28/09:00am 25.7 29.6 21.1 76 3.0 SE 2 6 1 3 1008.3 1008.2 1.0
28/08:30am 23.9 27.7 21.0 84 1.9 SW 2 6 1 3 1008.2 1008.1 1.0
28/08:00am 22.4 26.4 21.4 94 0.7 WSW 2 6 1 3 1008.1 1008.0 1.0
28/07:30am 21.3 23.2 20.6 96 0.5 WSW 11 13 6 7 1007.9 1007.8 1.0
28/07:00am 20.7 23.4 20.2 97 0.3 SW 6 9 3 5 1007.8 1007.7 1.0
28/06:30am 20.3 23.8 19.6 96 0.4 CALM 0 0 0 0 1007.6 1007.5 1.0
28/06:00am 20.5 24.1 19.8 96 0.4 CALM 0 0 0 0 1007.4 1007.3 1.0
28/05:30am 20.4 23.2 19.7 96 0.4 NNW 4 9 2 5 1007.1 1007.0 1.0
28/05:00am 20.4 22.8 19.7 96 0.4 NW 6 11 3 6 1007.0 1006.9 0.8
28/04:30am 20.3 23.8 19.6 96 0.4 CALM 0 0 0 0 1006.8 1006.7 0.8
28/04:26am 20.4 23.9 19.6 95 0.5 CALM 0 0 0 0 1006.8 1006.7 0.8
28/04:00am 20.5 24.1 19.8 96 0.4 CALM 0 0 0 0 1006.7 1006.6 0.8
28/03:58am 20.6 24.3 19.9 96 0.4 CALM 0 0 0 0 1006.7 1006.6 0.8
28/03:39am 20.3 23.8 19.5 95 0.5 CALM 0 0 0 0 1006.8 1006.7 0.8
28/03:30am 20.7 24.4 19.9 95 0.5 CALM 0 0 0 0 1006.8 1006.7 0.8
28/03:29am 20.7 24.4 19.9 95 0.5 CALM 0 0 0 0 1006.8 1006.7 0.8
28/03:00am 21.0 23.2 20.3 96 0.5 SW 9 11 5 6 1007.0 1006.9 0.8
28/02:30am 21.1 23.3 20.4 96 0.5 SW 9 13 5 7 1007.3 1007.2 0.8
28/02:00am 20.9 23.9 20.1 95 0.5 SW 4 7 2 4 1007.4 1007.3 0.8
28/01:30am 21.1 23.6 20.3 95 0.5 SW 7 9 4 5 1007.9 1007.8 0.8
28/01:00am 21.3 24.5 20.5 95 0.5 WSW 4 7 2 4 1008.1 1008.0 0.8
28/12:30am 21.3 25.2 20.3 94 0.6 CALM 0 0 0 0 1008.3 1008.2 0.8
28/12:00am 21.5 25.1 20.5 94 0.6 SW 2 7 1 4 1008.7 1008.6 0.8
 
Date/Time
EDT
Temp
°C
App
Temp
°C
Dew
Point
°C
Rel
Hum
%
Delta-T
°C
Wind Press
QNH
hPa
Press
MSL
hPa
Rain since
9am
mm
Dir  Spd
km/h
Gust
km/h
Spd
kts
Gust
kts
27/11:30pm 21.6 24.8 20.6 94 0.6 SW 4 9 2 5 1009.0 1008.9 0.8
27/11:00pm 21.9 24.0 20.9 94 0.7 SW 11 15 6 8 1009.1 1009.0 0.8
27/10:30pm 22.1 24.4 21.3 95 0.5 WSW 11 13 6 7 1008.8 1008.7 0.8
27/10:00pm 22.3 25.2 21.1 93 0.8 S 7 13 4 7 1008.5 1008.4 0.8
27/09:30pm 23.0 25.5 21.1 89 1.2 E 9 11 5 6 1008.1 1008.0 0.8
27/09:00pm 22.6 25.3 20.7 89 1.2 SSW 7 9 4 5 1008.2 1008.1 0.8
27/08:30pm 22.8 25.0 20.5 87 1.5 SSW 9 13 5 7 1007.7 1007.6 0.8
27/08:00pm 22.8 25.1 20.7 88 1.4 SSW 9 13 5 7 1007.6 1007.5 0.8
27/07:30pm 23.2 25.6 20.9 87 1.5 SW 9 11 5 6 1006.9 1006.8 0.8
27/07:00pm 23.5 26.0 21.0 86 1.6 W 9 13 5 7 1006.9 1006.8 0.8
27/06:30pm 24.1 27.2 21.0 83 2.0 SSE 6 7 3 4 1007.3 1007.2 0.8
27/06:17pm 24.2 27.9 20.7 81 2.3 ESE 2 7 1 4 1007.4 1007.3 0.8
27/06:00pm 24.5 26.9 20.8 80 2.4 ESE 9 13 5 7 1007.3 1007.2 0.8
27/05:51pm 24.5 26.9 20.8 80 2.4 ESE 9 13 5 7 1007.4 1007.3 0.8
27/05:35pm 24.6 26.2 21.5 83 2.1 ESE 15 19 8 10 1007.6 1007.5 0.8
27/05:30pm 24.4 26.2 21.1 82 2.2 E 13 19 7 10 1007.6 1007.5 0.8
27/05:00pm 24.4 26.2 21.1 82 2.2 E 13 19 7 10 1007.5 1007.4 0.8
27/04:38pm 24.5 25.6 21.2 82 2.2 ENE 17 22 9 12 1007.4 1007.3 0.8
27/04:36pm 24.6 25.6 21.7 84 1.9 ENE 19 22 10 12 1007.4 1007.3 0.8
27/04:30pm 24.5 25.3 21.4 83 2.0 NE 19 24 10 13 1007.5 1007.4 0.8
27/04:00pm 24.6 25.2 22.1 86 1.7 E 22 32 12 17 1007.5 1007.4 0.8
27/03:56pm 24.6 25.2 22.1 86 1.7 E 22 30 12 16 1007.4 1007.3 0.8
27/03:30pm 26.4 26.2 22.0 77 2.9 SE 26 37 14 20 1007.3 1007.2 0.6
27/03:00pm 26.1 28.3 22.6 81 2.4 SSE 15 24 8 13 1007.3 1007.2 0.6
27/02:30pm 24.9 28.4 22.8 88 1.4 S 9 15 5 8 1007.3 1007.2 0.6
27/02:00pm 24.5 28.1 22.4 88 1.4 S 7 11 4 6 1007.5 1007.4 0.6
27/01:30pm 24.5 27.5 22.6 89 1.3 SSW 11 15 6 8 1007.3 1007.2 0.6
27/01:08pm 24.7 27.6 22.4 87 1.5 SSW 11 17 6 9 1007.3 1007.2 0.6
27/01:00pm 24.8 27.1 22.1 85 1.8 SSW 13 20 7 11 1007.5 1007.4 0.4
27/12:50pm 25.3 26.2 21.6 80 2.5 S 19 24 10 13 1007.3 1007.2 0.2
27/12:30pm 27.9 29.2 22.4 72 3.7 S 19 24 10 13 1007.8 1007.7 0.0
27/12:00pm 26.1 26.8 21.5 76 3.1 S 20 28 11 15 1008.2 1008.1 0.0
27/11:30am 26.0 26.6 21.4 76 3.1 SSE 20 28 11 15 1008.6 1008.5 0.0
27/11:00am 26.0 26.6 21.4 76 3.1 SSE 20 24 11 13 1008.8 1008.7 0.0
27/10:57am 25.9 26.7 21.3 76 3.0 SSE 19 24 10 13 1008.8 1008.7 0.0
27/10:30am 25.5 26.9 21.8 80 2.5 SSE 17 26 9 14 1008.6 1008.5 0.0
27/10:29am 25.9 28.2 22.8 83 2.1 SSE 15 24 8 13 1008.6 1008.5 0.0
27/10:00am 26.0 30.0 23.1 84 2.0 SSE 7 9 4 5 1008.1 1008.0 6.6
27/09:30am 26.1 29.8 23.2 84 2.0 WNW 9 11 5 6 1008.1 1008.0 6.6
27/09:00am 26.8 29.8 22.6 78 2.8 N 11 15 6 8 1007.6 1007.5 6.6
27/08:30am 26.1 29.7 23.0 83 2.1 NNW 9 15 5 8 1007.5 1007.4 6.6
27/08:00am 25.2 29.1 22.9 87 1.6 NNW 7 11 4 6 1007.4 1007.3 6.6
27/07:30am 23.9 28.0 22.2 90 1.1 NNW 4 9 2 5 1007.6 1007.5 6.6
27/07:00am 22.6 24.8 21.2 92 0.9 NNW 11 13 6 7 1007.5 1007.4 6.6
27/06:30am 21.8 25.7 20.3 91 1.0 CALM 0 0 0 0 1007.3 1007.2 6.6
27/06:00am 21.7 23.8 20.2 91 1.0 NW 9 13 5 7 1007.0 1006.9 6.6
27/05:30am 21.4 24.2 20.4 94 0.6 NW 6 7 3 4 1006.8 1006.7 6.6
27/05:00am 21.7 25.6 20.3 92 0.9 CALM 0 0 0 0 1006.4 1006.3 6.6
27/04:30am 21.6 23.3 20.1 91 1.0 NNW 11 15 6 8 1006.1 1006.0 6.6
27/04:00am 21.3 24.4 20.3 94 0.6 WNW 4 9 2 5 1006.4 1006.3 6.6
27/03:30am 21.1 22.8 20.1 94 0.6 W 11 13 6 7 1006.6 1006.5 6.6
27/03:00am 21.3 23.5 20.5 95 0.5 WNW 9 11 5 6 1007.3 1007.2 6.6
27/02:30am 21.6 24.3 20.2 92 0.9 ESE 6 7 3 4 1008.4 1008.3 6.6
27/02:00am 22.0 24.2 20.5 91 1.0 NE 9 13 5 7 1008.7 1008.6 6.6
27/01:37am 21.4 24.6 20.6 95 0.5 SE 4 9 2 5 1008.4 1008.3 6.6
27/01:30am 21.4 25.0 20.6 95 0.5 SSE 2 6 1 3 1008.4 1008.3 6.6
27/01:27am 21.3 24.5 20.5 95 0.5 SE 4 11 2 6 1008.5 1008.4 6.6
27/01:02am 21.2 23.7 20.2 94 0.6 ENE 7 13 4 7 1009.3 1009.2 6.2
27/01:00am 21.2 23.3 20.2 94 0.6 E 9 13 5 7 1009.4 1009.3 6.0
27/12:30am 21.6 19.4 18.8 84 1.8 SSW 28 39 15 21 1010.7 1010.6 1.2
27/12:20am 23.9 23.0 19.8 78 2.6 S 24 41 13 22 1010.3 1010.2 0.0
27/12:00am 25.5 29.7 23.4 88 1.4 W 7 9 4 5 1009.5 1009.4 0.0
 
Date/Time
EDT
Temp
°C
App
Temp
°C
Dew
Point
°C
Rel
Hum
%
Delta-T
°C
Wind Press
QNH
hPa
Press
MSL
hPa
Rain since
9am
mm
Dir  Spd
km/h
Gust
km/h
Spd
kts
Gust
kts
26/11:30pm 25.6 29.3 23.3 87 1.6 W 9 11 5 6 1009.5 1009.4 0.0
26/11:00pm 25.8 30.2 23.5 87 1.6 WNW 6 7 3 4 1009.4 1009.3 0.0
26/10:30pm 26.2 30.0 23.5 85 1.8 NNW 9 13 5 7 1009.1 1009.0 0.0
26/10:00pm 26.3 29.3 23.4 84 2.0 N 13 19 7 10 1008.7 1008.6 0.0
26/09:30pm 26.2 28.7 23.1 83 2.1 N 15 20 8 11 1009.0 1008.9 0.0
26/09:00pm 26.5 28.2 23.4 83 2.1 N 20 26 11 14 1008.7 1008.6 0.0
26/08:30pm 26.6 28.3 23.1 81 2.4 N 19 24 10 13 1008.4 1008.3 0.0
26/08:00pm 26.7 28.7 23.0 80 2.5 N 17 22 9 12 1008.2 1008.1 0.0
26/07:30pm 26.7 28.4 23.0 80 2.5 N 19 24 10 13 1007.7 1007.6 0.0
26/07:00pm 26.7 28.4 23.0 80 2.5 N 19 24 10 13 1007.5 1007.4 0.0
26/06:30pm 27.0 28.5 23.0 79 2.7 N 20 24 11 13 1007.3 1007.2 0.0
26/06:00pm 27.2 28.7 23.0 78 2.9 N 20 24 11 13 1007.3 1007.2 0.0
26/05:30pm 27.3 28.7 22.9 77 3.0 NNE 20 26 11 14 1007.4 1007.3 0.0
26/05:00pm 27.8 29.3 23.0 75 3.3 NNE 20 26 11 14 1007.1 1007.0 0.0
26/04:30pm 28.1 29.5 22.8 73 3.6 NNE 20 26 11 14 1007.2 1007.1 0.0
26/04:00pm 27.6 29.4 22.5 74 3.5 N 17 20 9 11 1007.6 1007.5 0.0

Other formats

Comma delimited format used in spreadsheet applications
http://www.bom.gov.au/fwo/IDN60801/IDN60801.94592.axf

JavaScript Object Notation format (JSON) in row-major order
http://www.bom.gov.au/fwo/IDN60801/IDN60801.94592.json

Data quality

Most of these data are generated automatically and are frequently updated. Quality checks on data are not normally performed. It is possible for incorrect values to appear. Refer to information at About Latest Weather Observations and please check the disclaimer before using these data.